EPWR

Copernicus Wrocław Airport

Wrocław, Poland

TAF EPWR 220530Z 2206/2306 15004KT 8000 BKN020 TEMPO 2206/2212 3000 RA BR BKN007 BECMG 2208/2210 26010KT

Issued Valid From Valid To
Oct-22 @ 05:30 UTC
(an hour ago)
Oct-22 @ 06:00 UTC
(33 minutes ago)
Oct-23 @ 06:00 UTC
(in 23 hours)
Oct-22 @ 06:00 - Oct-22 @ 08:00
Wind Visibility Clouds
150° at 4 knots
  • Broken at 2,000' AGL
Temporary Oct-22 @ 06:00 - Oct-22 @ 12:00
Visibility Clouds Conditions
  • Broken at 700' AGL
  • Rain
  • Mist
Becoming Oct-22 @ 08:00 - Oct-23 @ 06:00
Wind Visibility Clouds
260° at 10 knots
  • Broken at 2,000' AGL
Issued Oct-22 @ 05:30 UTC
(an hour ago)
Valid From Oct-22 @ 06:00 UTC
(33 minutes ago)
Valid To Oct-23 @ 06:00 UTC
(in 23 hours)
Oct-22 @ 06:00 - Oct-22 @ 08:00
Wind Visibility
150° at 4 knots 7,998 meters
Clouds
  • Broken at 2,000' AGL
Temporary Oct-22 @ 06:00 - Oct-22 @ 12:00
Clouds Conditions
  • Broken at 700' AGL
  • Rain
  • Mist
Becoming Oct-22 @ 08:00 - Oct-23 @ 06:00
Wind Visibility
260° at 10 knots 7,998 meters
Clouds
  • Broken at 2,000' AGL